Fremont, OH

11:56 AM EDT on June 30, 2015 (GMT -0400)
KD8CPI East of Potter Village | | Change Station
CLOSE
Current Station
Personal Weather Station
Location: Fremont, OH
Elevation: 620 ft
Nearby Weather Stations
Active Advisory: Flood Warning

Elev 620 ft 41.36 °N, 83.13 °W | Updated 12 minutes ago

Partly Cloudy
Partly Cloudy
72.1 °F
Feels Like 72 °F
N
4.7
Wind Variable Wind from WSW

Today
High -- | Low -- °F
--% Chance of Precip.
Yesterday
High -- | Low -- °F
Precip. -- in
6:02 AM 9:09 PM
Waxing Gibbous, 97% visible
Pressure 29.81 in
Visibility 10.0 miles
Clouds Few 2100 ft
Heat Index 72 °F
Dew Point 66 °F
Humidity 82%
Rainfall in
Snow Depth Not available.
UV 9 out of 12
Pollen 3.30 out of 12
Air Quality Not available.
Flu Activity Sporadic
METAR KPCW 301532Z AUTO 22009KT 10SM FEW021 23/18 A2981 RMK AO2 $

More Conditions Fewer Conditions

Pressure 29.81 in
Visibility 10.0 miles
Clouds Few 2100 ft
Heat Index 72 °F
Dew Point 66 °F
Humidity 82%
Rainfall in
Snow Depth Not available.
UV 9 out of 12
Pollen 3.30 out of 12
Air Quality Not available.
Flu Activity Sporadic
METAR KPCW 301532Z AUTO 22009KT 10SM FEW021 23/18 A2981 RMK AO2 $

More Conditions Fewer Conditions

10-Day Weather Forecast

×

Almanac

Astronomy

Jun. 30, 2015 Rise Set
Actual Time
Civil Twilight
Nautical Twilight
Astronomical Twilight
Moon
Length of Visible Light
Length of Day
Tomorrow will be .
, % of the Moon is Illuminated

Today's Extremes

State Highs State Lows

Community

WunderPhotos

Upload Photos

1,834,027 photos uploaded!

WunderBlogs® & News

Nearby

Air Quality

  Air Quality AQ Index Pollutant
Not available.

Snow Depth

Station Depth Elevation

Earthquake Activity

City Distance Mag. Time & Date
Minimum magnitude displayed is 2.5.

Coastal Water Temperatures

Place Temperature

Stations

Nearby Weather Stations

Station Location Temp. Windchill Dew Point Humidity Wind Precip. Elev Updated Type
                   
Flood Warning
Statement as of 10:32 AM EDT on June 30, 2015

The Flood Warning continues for
the Portage River at Woodville.
* At 9:30 am Tuesday the stage was 12.4 feet.
* Flood stage is 9.0 feet.
* Minor flooding is occurring and minor flooding is forecast.
* Forecast... the river will fall to below flood stage by Wednesday
morning.
* At 12.0 feet... lower portions of south Cherry street near trail
marker park inundated. Water approaches property south of
Pemberville Road.
* At 11.0 feet... the river floods trail marker park up to Erie
street.
* At 9.0 feet... the river inundates lower portions of trail marker
park.


Lat... Lon 4136 8354 4148 8334 4143 8334 4135 8349


Sefcovic